createdAt,value
2017-04-20T00:00:36.027Z,2.70
2017-04-20T00:01:35.640Z,2.70
2017-04-20T00:02:35.293Z,2.70
2017-04-20T00:03:35.010Z,2.70
2017-04-20T00:04:35.369Z,2.70
2017-04-20T00:05:35.069Z,2.70
2017-04-20T00:06:34.735Z,2.70
2017-04-20T00:07:34.372Z,2.70
2017-04-20T00:08:34.104Z,2.60
2017-04-20T00:09:33.725Z,2.60
2017-04-20T00:10:33.352Z,2.70
2017-04-20T00:11:33.127Z,2.70
2017-04-20T00:12:33.320Z,2.70
2017-04-20T00:13:32.949Z,2.70
2017-04-20T00:14:32.637Z,2.70
2017-04-20T00:15:32.281Z,2.70
2017-04-20T00:16:31.999Z,2.60
2017-04-20T00:17:31.672Z,2.60
2017-04-20T00:18:31.396Z,2.70
2017-04-20T00:19:31.033Z,2.60
2017-04-20T00:20:30.645Z,2.60
2017-04-20T00:21:30.274Z,2.60
2017-04-20T00:22:29.893Z,2.60
2017-04-20T00:23:29.601Z,2.50
2017-04-20T00:24:29.215Z,2.50
2017-04-20T00:25:28.829Z,2.60
2017-04-20T00:26:28.452Z,2.60
2017-04-20T00:27:28.168Z,2.50
2017-04-20T00:28:28.554Z,2.50
2017-04-20T00:29:28.247Z,2.50
2017-04-20T00:30:27.977Z,2.50
2017-04-20T00:31:27.622Z,2.50
2017-04-20T00:32:27.296Z,2.60
2017-04-20T00:33:26.914Z,2.50
2017-04-20T00:34:26.532Z,2.50
2017-04-20T00:35:26.227Z,2.50
2017-04-20T00:36:25.922Z,2.50
2017-04-20T00:37:25.591Z,2.50
2017-04-20T00:38:25.257Z,2.50
2017-04-20T00:39:25.670Z,2.50
2017-04-20T00:40:25.335Z,2.50
2017-04-20T00:41:25.074Z,2.50
2017-04-20T00:42:24.833Z,2.40
2017-04-20T00:43:24.448Z,2.40
2017-04-20T00:44:24.169Z,2.40
2017-04-20T00:45:24.532Z,2.40
2017-04-20T00:46:24.155Z,2.40
2017-04-20T00:47:23.813Z,2.40
2017-04-20T00:48:23.537Z,2.40
2017-04-20T00:49:23.271Z,2.40
2017-04-20T00:50:23.004Z,2.40
2017-04-20T00:51:22.652Z,2.40
2017-04-20T00:52:22.258Z,2.40
2017-04-20T00:53:21.928Z,2.30
2017-04-20T00:54:21.560Z,2.30
2017-04-20T00:55:21.188Z,2.30
2017-04-20T00:56:20.846Z,2.30
2017-04-20T00:57:20.460Z,2.40
2017-04-20T00:58:20.105Z,2.30
2017-04-20T00:59:19.875Z,2.30
2017-04-20T01:00:19.580Z,2.30
2017-04-20T01:01:19.197Z,2.30
2017-04-20T01:02:18.792Z,2.30
2017-04-20T01:03:18.419Z,2.30
2017-04-20T01:04:18.073Z,2.20
2017-04-20T01:05:17.720Z,2.20
2017-04-20T01:06:17.340Z,2.20
2017-04-20T01:07:16.956Z,2.20
2017-04-20T01:08:16.640Z,2.20
2017-04-20T01:09:16.268Z,2.20
2017-04-20T01:10:16.021Z,2.20
2017-04-20T01:11:15.685Z,2.20
2017-04-20T01:12:15.303Z,2.20
2017-04-20T01:13:14.925Z,2.20
2017-04-20T01:14:14.605Z,2.20
2017-04-20T01:15:14.227Z,2.20
2017-04-20T01:16:13.898Z,2.20
2017-04-20T01:17:13.655Z,2.20
2017-04-20T01:18:13.307Z,2.20
2017-04-20T01:19:13.072Z,2.20
2017-04-20T01:20:12.793Z,2.20
2017-04-20T01:21:12.429Z,2.20
2017-04-20T01:22:12.188Z,2.20
2017-04-20T01:23:11.855Z,2.20
2017-04-20T01:24:11.492Z,2.20
2017-04-20T01:25:11.113Z,2.20
2017-04-20T01:26:10.729Z,2.20
2017-04-20T01:27:10.401Z,2.20
2017-04-20T01:28:10.034Z,2.20
2017-04-20T01:29:09.704Z,2.20
2017-04-20T01:30:09.331Z,2.20
2017-04-20T01:31:08.980Z,2.10
2017-04-20T01:32:08.616Z,2.10
2017-04-20T01:33:08.224Z,2.10
2017-04-20T01:34:07.909Z,2.10
2017-04-20T01:35:07.604Z,2.10
2017-04-20T01:36:07.229Z,2.10
2017-04-20T01:37:06.913Z,2.10
2017-04-20T01:38:06.554Z,2.10
2017-04-20T01:39:06.460Z,2.10
2017-04-20T01:40:06.160Z,2.10
2017-04-20T01:41:05.879Z,2.10
2017-04-20T01:42:05.533Z,2.10
2017-04-20T01:43:05.207Z,2.00
2017-04-20T01:44:04.884Z,2.00
2017-04-20T01:45:04.635Z,2.00
2017-04-20T01:46:04.263Z,2.10
2017-04-20T01:47:03.943Z,2.10
2017-04-20T01:48:03.628Z,2.10
2017-04-20T01:49:03.272Z,2.10
2017-04-20T01:50:02.925Z,2.10
2017-04-20T01:51:03.292Z,2.10
2017-04-20T01:52:02.899Z,2.10
2017-04-20T01:53:02.579Z,2.10
2017-04-20T01:54:02.201Z,2.10
2017-04-20T01:55:01.812Z,2.10
2017-04-20T01:56:01.392Z,2.10
2017-04-20T01:57:01.016Z,2.10
2017-04-20T01:58:01.380Z,2.10
2017-04-20T01:59:01.103Z,2.00
2017-04-20T02:00:00.729Z,2.10
2017-04-20T02:01:00.356Z,2.00
2017-04-20T02:01:59.976Z,2.10
2017-04-20T02:02:59.609Z,2.00
2017-04-20T02:03:59.253Z,2.00
2017-04-20T02:04:58.910Z,2.00
2017-04-20T02:05:59.272Z,2.00
2017-04-20T02:06:58.888Z,2.00
2017-04-20T02:07:58.524Z,2.00
2017-04-20T02:08:58.186Z,2.00
2017-04-20T02:09:57.850Z,2.00
2017-04-20T02:10:57.587Z,2.00
2017-04-20T02:11:57.265Z,2.00
2017-04-20T02:12:57.009Z,2.00
2017-04-20T02:13:56.660Z,2.00
2017-04-20T02:14:56.388Z,2.00
2017-04-20T02:15:56.022Z,2.00
2017-04-20T02:16:55.696Z,2.00
2017-04-20T02:17:55.347Z,2.00
2017-04-20T02:18:55.768Z,1.90
2017-04-20T02:19:55.396Z,2.00
2017-04-20T02:20:55.028Z,2.00
2017-04-20T02:21:54.676Z,2.00
2017-04-20T02:22:54.388Z,2.00
2017-04-20T02:23:54.100Z,1.90
2017-04-20T02:24:53.746Z,2.00
2017-04-20T02:25:53.354Z,2.00
2017-04-20T02:26:53.751Z,1.90
2017-04-20T02:27:53.397Z,1.90
2017-04-20T02:28:53.800Z,1.90
2017-04-20T02:29:53.518Z,1.90
2017-04-20T02:30:53.148Z,1.90
2017-04-20T02:31:52.776Z,1.90
2017-04-20T02:32:52.402Z,1.90
2017-04-20T02:33:52.027Z,1.90
2017-04-20T02:34:51.696Z,2.00
2017-04-20T02:35:51.316Z,1.90
2017-04-20T02:36:50.996Z,1.90
2017-04-20T02:37:51.533Z,1.90
2017-04-20T02:38:51.220Z,1.90
2017-04-20T02:39:51.609Z,1.80
2017-04-20T02:40:51.272Z,1.90
2017-04-20T02:41:50.893Z,1.90
2017-04-20T02:42:50.539Z,1.90
2017-04-20T02:43:50.151Z,1.90
2017-04-20T02:44:49.788Z,1.90
2017-04-20T02:45:49.517Z,1.90
2017-04-20T02:46:49.135Z,1.90
2017-04-20T02:47:48.778Z,1.90
2017-04-20T02:48:48.389Z,1.80
2017-04-20T02:49:48.016Z,1.80
2017-04-20T02:50:47.627Z,1.80
2017-04-20T02:51:47.297Z,1.80
2017-04-20T02:52:46.925Z,1.80
2017-04-20T02:53:46.538Z,1.80
2017-04-20T02:54:46.181Z,1.80
2017-04-20T02:55:45.820Z,1.80
2017-04-20T02:56:45.432Z,1.80
2017-04-20T02:57:45.191Z,1.80
2017-04-20T02:58:44.803Z,1.80
2017-04-20T02:59:44.446Z,1.80
2017-04-20T03:00:44.166Z,1.90
2017-04-20T03:01:43.805Z,1.80
2017-04-20T03:02:43.447Z,1.80
2017-04-20T03:03:43.140Z,1.80
2017-04-20T03:04:42.781Z,1.90
2017-04-20T03:05:42.488Z,1.90
2017-04-20T03:06:42.116Z,1.90
2017-04-20T03:07:41.852Z,1.80
2017-04-20T03:08:41.481Z,1.80
2017-04-20T03:09:41.167Z,1.80
2017-04-20T03:10:40.786Z,1.90
2017-04-20T03:11:40.402Z,1.90
2017-04-20T03:12:40.142Z,1.90
2017-04-20T03:13:39.805Z,1.90
2017-04-20T03:14:39.532Z,1.90
2017-04-20T03:15:39.249Z,1.90
2017-04-20T03:16:38.925Z,1.80
2017-04-20T03:17:38.558Z,1.80
2017-04-20T03:18:38.208Z,1.80
2017-04-20T03:19:37.867Z,1.80
2017-04-20T03:20:37.494Z,1.80
2017-04-20T03:21:37.167Z,1.80
2017-04-20T03:22:36.776Z,1.80
2017-04-20T03:23:36.430Z,1.80
2017-04-20T03:24:36.087Z,1.80
2017-04-20T03:25:35.712Z,1.80
2017-04-20T03:26:35.345Z,1.70
2017-04-20T03:27:35.064Z,1.70
2017-04-20T03:28:35.441Z,1.70
2017-04-20T03:29:35.108Z,1.70
2017-04-20T03:30:34.733Z,1.70
2017-04-20T03:31:34.408Z,1.70
2017-04-20T03:32:34.074Z,1.70
2017-04-20T03:33:33.788Z,1.70
2017-04-20T03:34:33.500Z,1.70
2017-04-20T03:35:33.132Z,1.70
2017-04-20T03:36:32.751Z,1.70
2017-04-20T03:37:32.370Z,1.70
2017-04-20T03:38:32.065Z,1.70
2017-04-20T03:39:31.729Z,1.70
2017-04-20T03:40:31.349Z,1.70
2017-04-20T03:41:30.987Z,1.60
2017-04-20T03:42:30.590Z,1.70
2017-04-20T03:43:30.209Z,1.70
2017-04-20T03:44:29.852Z,1.70
2017-04-20T03:45:29.526Z,1.70
2017-04-20T03:46:29.176Z,1.70
2017-04-20T03:47:28.797Z,1.70
2017-04-20T03:48:28.488Z,1.70
2017-04-20T03:49:28.106Z,1.70
2017-04-20T03:50:27.729Z,1.60
2017-04-20T03:51:27.387Z,1.70
2017-04-20T03:52:27.003Z,1.60
2017-04-20T03:53:27.355Z,1.60
2017-04-20T03:54:27.719Z,1.60
2017-04-20T03:55:27.351Z,1.60
2017-04-20T03:56:27.013Z,1.60
2017-04-20T03:57:26.765Z,1.60
2017-04-20T03:58:26.405Z,1.60
2017-04-20T03:59:26.032Z,1.60
2017-04-20T04:00:25.660Z,1.60
2017-04-20T04:01:25.306Z,1.70
2017-04-20T04:02:25.674Z,1.60
2017-04-20T04:03:25.450Z,1.70
2017-04-20T04:04:25.059Z,1.70
2017-04-20T04:05:24.865Z,1.70
2017-04-20T04:06:24.480Z,1.70
2017-04-20T04:07:24.113Z,1.70
2017-04-20T04:08:23.761Z,1.70
2017-04-20T04:09:23.412Z,1.70
2017-04-20T04:10:23.036Z,1.70
2017-04-20T04:11:22.702Z,1.70
2017-04-20T04:12:22.349Z,1.70
2017-04-20T04:13:21.972Z,1.70
2017-04-20T04:14:21.619Z,1.70
2017-04-20T04:15:21.288Z,1.60
2017-04-20T04:16:21.656Z,1.70
2017-04-20T04:17:21.304Z,1.70
2017-04-20T04:18:21.685Z,1.60
2017-04-20T04:19:21.298Z,1.70
2017-04-20T04:20:20.961Z,1.70
2017-04-20T04:21:20.672Z,1.70
2017-04-20T04:22:20.299Z,1.70
2017-04-20T04:23:19.890Z,1.70
2017-04-20T04:24:19.516Z,1.70
2017-04-20T04:25:19.158Z,1.70
2017-04-20T04:26:18.791Z,1.70
2017-04-20T04:27:18.476Z,1.70
2017-04-20T04:28:18.101Z,1.70
2017-04-20T04:29:17.732Z,1.80
2017-04-20T04:30:17.368Z,1.70
2017-04-20T04:31:17.048Z,1.70
2017-04-20T04:32:16.687Z,1.70
2017-04-20T04:33:16.348Z,1.70
2017-04-20T04:34:15.997Z,1.70
2017-04-20T04:35:15.617Z,1.70
2017-04-20T04:36:15.248Z,1.70
2017-04-20T04:37:14.926Z,1.70
2017-04-20T04:38:14.552Z,1.70
2017-04-20T04:39:14.349Z,1.80
2017-04-20T04:40:13.998Z,1.80
2017-04-20T04:41:14.382Z,1.80
2017-04-20T04:42:14.003Z,1.80
2017-04-20T04:43:13.638Z,1.80
2017-04-20T04:44:13.276Z,1.80
2017-04-20T04:45:12.935Z,1.90
2017-04-20T04:46:12.548Z,1.90
2017-04-20T04:47:12.170Z,1.90
2017-04-20T04:48:11.795Z,1.80
2017-04-20T04:49:11.489Z,1.80
2017-04-20T04:50:11.154Z,1.80
2017-04-20T04:51:10.886Z,1.80
2017-04-20T04:52:10.507Z,1.80
2017-04-20T04:53:10.160Z,1.80
2017-04-20T04:54:09.878Z,1.80
2017-04-20T04:55:09.515Z,1.80
2017-04-20T04:56:09.134Z,1.80
2017-04-20T04:57:08.862Z,1.80
2017-04-20T04:58:08.547Z,1.80
2017-04-20T04:59:08.267Z,1.80
2017-04-20T05:00:07.926Z,1.90
2017-04-20T05:01:07.591Z,1.90
2017-04-20T05:02:07.191Z,1.90
2017-04-20T05:03:06.920Z,2.00
2017-04-20T05:04:06.553Z,2.00
2017-04-20T05:05:21.423Z,2.00
2017-04-20T05:06:21.043Z,2.00
2017-04-20T05:07:20.680Z,2.00
2017-04-20T05:08:20.397Z,2.00
2017-04-20T05:09:20.026Z,2.00
2017-04-20T05:10:19.660Z,2.10
2017-04-20T05:11:19.392Z,2.10
2017-04-20T05:12:19.011Z,2.10
2017-04-20T05:13:18.652Z,2.10
2017-04-20T05:14:18.348Z,2.10
2017-04-20T05:15:17.989Z,2.10
2017-04-20T05:16:17.612Z,2.10
2017-04-20T05:17:17.259Z,2.10
2017-04-20T05:18:16.878Z,2.10
2017-04-20T05:19:16.510Z,2.10
2017-04-20T05:20:16.179Z,2.10
2017-04-20T05:21:15.864Z,2.20
2017-04-20T05:22:15.483Z,2.20
2017-04-20T05:23:15.137Z,2.10
2017-04-20T05:24:14.776Z,2.20
2017-04-20T05:25:14.401Z,2.20
2017-04-20T05:26:14.069Z,2.20
2017-04-20T05:27:13.852Z,2.20
2017-04-20T05:28:13.588Z,2.20
2017-04-20T05:29:13.255Z,2.20
2017-04-20T05:30:12.925Z,2.20
2017-04-20T05:31:12.560Z,2.30
2017-04-20T05:32:12.307Z,2.30
2017-04-20T05:33:12.757Z,2.30
2017-04-20T05:34:12.396Z,2.40
2017-04-20T05:35:12.197Z,2.40
2017-04-20T05:36:11.855Z,2.40
2017-04-20T05:37:12.278Z,2.50
2017-04-20T05:38:11.990Z,2.60
2017-04-20T05:39:11.673Z,2.70
2017-04-20T05:40:11.407Z,2.70
2017-04-20T05:41:11.086Z,2.80
2017-04-20T05:42:10.729Z,2.80
2017-04-20T05:43:10.426Z,2.80
2017-04-20T05:44:10.065Z,2.80
2017-04-20T05:45:09.750Z,2.80
2017-04-20T05:46:09.403Z,2.80
2017-04-20T05:47:09.503Z,2.70
2017-04-20T05:48:09.167Z,2.70
2017-04-20T05:49:08.959Z,2.70
2017-04-20T05:50:09.355Z,2.70
2017-04-20T05:51:09.086Z,2.70
2017-04-20T05:52:08.713Z,2.70
2017-04-20T05:53:08.330Z,2.70
2017-04-20T05:54:08.061Z,2.70
2017-04-20T05:55:08.493Z,2.80
2017-04-20T05:56:08.089Z,2.80
2017-04-20T05:57:07.737Z,2.90
2017-04-20T05:58:07.376Z,3.00
2017-04-20T05:59:07.031Z,3.10
2017-04-20T06:00:06.762Z,3.10
2017-04-20T06:01:07.176Z,3.10
2017-04-20T06:02:06.877Z,3.20
2017-04-20T06:03:06.504Z,3.20
2017-04-20T06:04:06.151Z,3.20
2017-04-20T06:05:05.828Z,3.20
2017-04-20T06:06:05.509Z,3.00
2017-04-20T06:07:05.205Z,3.00
2017-04-20T06:08:04.893Z,3.00
2017-04-20T06:09:05.801Z,3.10
2017-04-20T06:10:05.469Z,3.20
2017-04-20T06:11:05.101Z,3.30
2017-04-20T06:12:04.720Z,3.30
2017-04-20T06:13:04.412Z,3.40
2017-04-20T06:14:04.028Z,3.40
2017-04-20T06:15:03.654Z,3.40
2017-04-20T06:16:03.378Z,3.40
2017-04-20T06:17:03.117Z,3.40
2017-04-20T06:18:02.885Z,3.40
2017-04-20T06:19:02.544Z,3.40
2017-04-20T06:20:02.160Z,3.30
2017-04-20T06:21:01.787Z,3.30
2017-04-20T06:22:01.456Z,3.20
2017-04-20T06:23:01.101Z,3.20
2017-04-20T06:24:00.853Z,3.30
2017-04-20T06:25:00.519Z,3.30
2017-04-20T06:26:00.153Z,3.40
2017-04-20T06:26:59.776Z,3.40
2017-04-20T06:27:59.409Z,3.40
2017-04-20T06:28:59.024Z,3.30
2017-04-20T06:29:58.641Z,3.30
2017-04-20T06:30:58.336Z,3.30
2017-04-20T06:31:57.958Z,3.30
2017-04-20T06:32:57.570Z,3.30
2017-04-20T06:33:57.323Z,3.30
2017-04-20T06:34:56.957Z,3.30
2017-04-20T06:35:56.597Z,3.30
2017-04-20T06:36:56.316Z,3.30
2017-04-20T06:37:55.944Z,3.30
2017-04-20T06:38:55.572Z,3.30
2017-04-20T06:39:55.309Z,3.20
2017-04-20T06:40:55.087Z,3.10
2017-04-20T06:41:54.808Z,3.10
2017-04-20T06:42:54.488Z,3.10
2017-04-20T06:43:54.121Z,3.10
2017-04-20T06:44:53.742Z,3.20
2017-04-20T06:45:53.502Z,3.30
2017-04-20T06:46:53.284Z,3.40
2017-04-20T06:47:53.146Z,3.40
2017-04-20T06:48:52.901Z,3.50
2017-04-20T06:49:53.289Z,3.60
2017-04-20T06:50:52.949Z,3.60
2017-04-20T06:51:52.624Z,3.70
2017-04-20T06:52:52.620Z,3.90
2017-04-20T06:53:52.356Z,4.10
2017-04-20T06:54:52.115Z,4.30
2017-04-20T06:55:51.935Z,4.30
2017-04-20T06:56:51.569Z,4.30
2017-04-20T06:57:51.311Z,4.30
2017-04-20T06:58:51.010Z,4.30
2017-04-20T06:59:51.443Z,4.30
2017-04-20T07:00:51.228Z,4.40
2017-04-20T07:01:51.582Z,4.50
2017-04-20T07:02:56.865Z,4.60
2017-04-20T07:03:56.791Z,4.70
2017-04-20T07:04:56.500Z,5.00
2017-04-20T07:05:56.165Z,5.20
2017-04-20T07:06:55.867Z,5.40
2017-04-20T07:07:56.242Z,5.50
2017-04-20T07:08:55.981Z,5.50
2017-04-20T07:09:55.613Z,5.40
2017-04-20T07:10:55.281Z,5.40
2017-04-20T07:11:54.926Z,5.60
2017-04-20T07:12:55.314Z,5.80
2017-04-20T07:13:55.704Z,6.00
2017-04-20T07:14:55.326Z,6.10
2017-04-20T07:15:54.992Z,6.00
2017-04-20T07:16:55.363Z,6.00
2017-04-20T07:17:54.996Z,6.00
2017-04-20T07:18:54.577Z,6.00
2017-04-20T07:19:54.209Z,6.10
2017-04-20T07:20:53.807Z,6.20
2017-04-20T07:21:53.479Z,6.30
2017-04-20T07:22:53.191Z,6.40
2017-04-20T07:23:53.568Z,6.50
2017-04-20T07:24:53.219Z,6.40
2017-04-20T07:25:52.839Z,6.60
2017-04-20T07:26:52.472Z,6.80
2017-04-20T07:27:52.146Z,6.90
2017-04-20T07:28:51.779Z,6.90
2017-04-20T07:29:51.399Z,6.80
2017-04-20T07:30:51.086Z,6.30
2017-04-20T07:31:50.696Z,6.00
2017-04-20T07:32:50.332Z,5.90
2017-04-20T07:33:50.027Z,5.90
2017-04-20T07:34:49.652Z,6.10
2017-04-20T07:35:49.304Z,6.40
2017-04-20T07:36:48.938Z,6.50
2017-04-20T07:37:48.552Z,6.50
2017-04-20T07:38:48.261Z,6.40
2017-04-20T07:39:47.936Z,6.20
2017-04-20T07:40:47.564Z,6.30
2017-04-20T07:41:47.193Z,6.30
2017-04-20T07:42:46.819Z,6.40
2017-04-20T07:43:46.457Z,6.50
2017-04-20T07:44:46.969Z,6.40
2017-04-20T07:45:46.643Z,6.40
2017-04-20T07:46:46.271Z,6.30
2017-04-20T07:47:45.896Z,6.40
2017-04-20T07:48:45.532Z,6.50
2017-04-20T07:49:45.254Z,6.50
2017-04-20T07:50:44.907Z,6.50
2017-04-20T07:51:45.323Z,6.50
2017-04-20T07:52:44.957Z,6.60
2017-04-20T07:53:45.321Z,6.80
2017-04-20T07:54:44.951Z,7.10
2017-04-20T07:55:44.611Z,7.20
2017-04-20T07:56:44.229Z,7.30
2017-04-20T07:57:43.897Z,7.50
2017-04-20T07:58:43.531Z,7.60
2017-04-20T07:59:43.149Z,7.80
2017-04-20T08:00:42.778Z,7.90
2017-04-20T08:01:42.392Z,7.90
2017-04-20T08:02:42.104Z,8.10
2017-04-20T08:03:41.886Z,8.20
2017-04-20T08:04:41.649Z,8.30
2017-04-20T08:05:42.067Z,8.40
2017-04-20T08:06:41.760Z,8.30
2017-04-20T08:07:41.391Z,8.20
2017-04-20T08:08:41.020Z,8.40
2017-04-20T08:09:40.698Z,8.70
2017-04-20T08:10:40.317Z,9.00
2017-04-20T08:11:39.925Z,8.90
2017-04-20T08:12:39.584Z,8.70
2017-04-20T08:13:39.196Z,8.50
2017-04-20T08:14:38.812Z,8.40
2017-04-20T08:15:38.482Z,8.10
2017-04-20T08:16:38.951Z,7.90
2017-04-20T08:17:38.882Z,7.50
2017-04-20T08:18:38.518Z,7.20
2017-04-20T08:19:38.136Z,7.10
2017-04-20T08:20:37.844Z,7.20
2017-04-20T08:21:37.511Z,7.10
2017-04-20T08:22:37.241Z,7.20
2017-04-20T08:23:36.874Z,7.40
2017-04-20T08:24:36.517Z,7.50
2017-04-20T08:25:36.189Z,7.30
2017-04-20T08:26:35.820Z,7.10
2017-04-20T08:27:35.465Z,7.00
2017-04-20T08:28:35.067Z,7.00
2017-04-20T08:29:34.671Z,7.00
2017-04-20T08:30:34.301Z,7.10
2017-04-20T08:31:33.929Z,7.00
2017-04-20T08:32:33.609Z,7.10
2017-04-20T08:33:33.401Z,7.00
2017-04-20T08:34:33.028Z,7.10
2017-04-20T08:35:32.653Z,7.00
2017-04-20T08:36:32.278Z,6.80
2017-04-20T08:37:31.999Z,6.40
2017-04-20T08:38:31.615Z,6.30
2017-04-20T08:39:31.277Z,6.30
2017-04-20T08:40:30.991Z,6.30
2017-04-20T08:41:30.669Z,6.30
2017-04-20T08:42:30.389Z,6.20
2017-04-20T08:43:30.020Z,6.20
2017-04-20T08:44:29.668Z,6.10
2017-04-20T08:45:29.344Z,5.90
2017-04-20T08:46:28.980Z,5.80
2017-04-20T08:47:28.674Z,5.80
2017-04-20T08:48:29.037Z,5.80
2017-04-20T08:49:28.648Z,5.90
2017-04-20T08:50:28.262Z,5.80
2017-04-20T08:51:27.928Z,5.90
2017-04-20T08:52:27.548Z,6.00
2017-04-20T08:53:27.167Z,5.90
2017-04-20T08:54:26.865Z,5.90
2017-04-20T08:55:27.237Z,5.90
2017-04-20T08:56:26.885Z,5.80
2017-04-20T08:57:27.303Z,5.70
2017-04-20T08:58:26.944Z,5.60
2017-04-20T08:59:26.560Z,5.70
2017-04-20T09:00:26.190Z,5.70
2017-04-20T09:01:25.804Z,5.70
2017-04-20T09:02:25.435Z,5.60
2017-04-20T09:03:25.192Z,5.60
2017-04-20T09:04:24.823Z,5.60
2017-04-20T09:05:24.428Z,5.60
2017-04-20T09:06:24.836Z,5.40
2017-04-20T09:07:24.588Z,5.40
2017-04-20T09:08:24.311Z,5.40
2017-04-20T09:09:23.949Z,5.40
2017-04-20T09:10:23.682Z,5.40
2017-04-20T09:11:23.339Z,5.30
2017-04-20T09:12:23.011Z,5.30
2017-04-20T09:13:22.669Z,5.30
2017-04-20T09:14:23.124Z,5.30
2017-04-20T09:15:22.828Z,5.50
2017-04-20T09:16:22.588Z,5.50
2017-04-20T09:17:22.243Z,5.60
2017-04-20T09:18:21.950Z,5.70
2017-04-20T09:19:21.587Z,5.90
2017-04-20T09:20:21.277Z,5.80
2017-04-20T09:21:20.917Z,5.70
2017-04-20T09:22:20.548Z,5.60
2017-04-20T09:23:20.272Z,5.70
2017-04-20T09:24:19.912Z,5.60
2017-04-20T09:25:19.561Z,5.60
2017-04-20T09:26:19.221Z,5.70
2017-04-20T09:27:18.964Z,5.70
2017-04-20T09:28:18.601Z,5.60
2017-04-20T09:29:18.229Z,5.60
2017-04-20T09:30:17.956Z,5.70
2017-04-20T09:31:17.633Z,5.60
2017-04-20T09:32:17.320Z,5.40
2017-04-20T09:33:16.933Z,5.40
2017-04-20T09:34:16.561Z,5.50
2017-04-20T09:35:16.215Z,5.70
2017-04-20T09:36:15.945Z,5.80
2017-04-20T09:37:15.577Z,5.90
2017-04-20T09:38:15.360Z,6.00
2017-04-20T09:39:15.004Z,5.90
2017-04-20T09:40:14.641Z,5.90
2017-04-20T09:41:14.280Z,6.00
2017-04-20T09:42:13.909Z,6.10
2017-04-20T09:43:13.631Z,6.10
2017-04-20T09:44:13.299Z,6.10
2017-04-20T09:45:12.904Z,6.20
2017-04-20T09:46:12.616Z,6.10
2017-04-20T09:47:12.971Z,6.00
2017-04-20T09:48:12.593Z,6.10
2017-04-20T09:49:12.696Z,6.00
2017-04-20T09:50:12.716Z,6.10
2017-04-20T09:51:12.346Z,6.10
2017-04-20T09:52:11.990Z,6.10
2017-04-20T09:53:11.732Z,6.00
2017-04-20T09:54:11.372Z,6.00
2017-04-20T09:55:10.996Z,6.00
2017-04-20T09:56:10.665Z,6.10
2017-04-20T09:57:10.287Z,6.10
2017-04-20T09:58:09.896Z,5.90
2017-04-20T09:59:09.619Z,5.80
2017-04-20T10:00:09.270Z,5.90
2017-04-20T10:01:09.012Z,5.90
2017-04-20T10:02:08.673Z,6.10
2017-04-20T10:03:08.409Z,6.10
2017-04-20T10:04:08.156Z,6.10
2017-04-20T10:05:07.909Z,6.20
2017-04-20T10:06:07.545Z,6.30
2017-04-20T10:07:22.072Z,6.30
2017-04-20T10:08:21.750Z,6.20
2017-04-20T10:09:22.101Z,6.10
2017-04-20T10:10:21.744Z,5.80
2017-04-20T10:11:21.459Z,5.70
2017-04-20T10:12:21.079Z,5.60
2017-04-20T10:13:20.748Z,5.70
2017-04-20T10:14:20.385Z,5.80
2017-04-20T10:15:20.032Z,5.90
2017-04-20T10:16:19.744Z,6.10
2017-04-20T10:17:20.108Z,6.20
2017-04-20T10:18:19.739Z,6.40
2017-04-20T10:19:19.412Z,6.40
2017-04-20T10:20:19.015Z,6.70
2017-04-20T10:21:19.371Z,6.80
2017-04-20T10:22:18.987Z,6.90
2017-04-20T10:23:18.623Z,7.00
2017-04-20T10:24:18.233Z,7.10
2017-04-20T10:25:17.980Z,7.10
2017-04-20T10:26:17.612Z,7.10
2017-04-20T10:27:17.220Z,6.90
2017-04-20T10:28:16.840Z,6.80
2017-04-20T10:29:17.215Z,6.70
2017-04-20T10:30:16.837Z,6.50
2017-04-20T10:31:16.517Z,6.50
2017-04-20T10:32:16.129Z,6.60
2017-04-20T10:33:15.751Z,6.70
2017-04-20T10:34:15.440Z,6.70
2017-04-20T10:35:15.139Z,6.70
2017-04-20T10:36:14.759Z,6.60
2017-04-20T10:37:14.434Z,6.50
2017-04-20T10:38:14.809Z,6.60
2017-04-20T10:39:14.435Z,6.60
2017-04-20T10:40:14.144Z,6.70
2017-04-20T10:41:13.757Z,6.70
2017-04-20T10:42:13.384Z,6.70
2017-04-20T10:43:13.035Z,6.70
2017-04-20T10:44:13.412Z,6.50
2017-04-20T10:45:13.147Z,6.50
2017-04-20T10:46:12.771Z,6.40
2017-04-20T10:47:12.384Z,6.30
2017-04-20T10:48:11.997Z,6.30
2017-04-20T10:49:12.406Z,6.20
2017-04-20T10:50:12.031Z,6.20
2017-04-20T10:51:11.746Z,6.20
2017-04-20T10:52:12.116Z,6.20
2017-04-20T10:53:11.728Z,6.20
2017-04-20T10:54:11.361Z,6.20
2017-04-20T10:55:11.017Z,6.20
2017-04-20T10:56:11.466Z,6.20
2017-04-20T10:57:11.852Z,6.20
2017-04-20T10:58:11.479Z,6.00
2017-04-20T10:59:11.844Z,6.00
2017-04-20T11:00:11.589Z,6.10
2017-04-20T11:01:11.297Z,6.30
2017-04-20T11:02:10.988Z,6.40
2017-04-20T11:03:11.352Z,6.60
2017-04-20T11:04:11.048Z,6.70
2017-04-20T11:05:10.685Z,6.80
2017-04-20T11:06:10.379Z,6.80
2017-04-20T11:07:10.094Z,7.10
2017-04-20T11:08:09.713Z,7.30
2017-04-20T11:09:09.320Z,7.40
2017-04-20T11:10:08.949Z,7.50
2017-04-20T11:11:09.305Z,7.50
2017-04-20T11:12:08.969Z,7.60
2017-04-20T11:13:08.604Z,7.60
2017-04-20T11:14:09.005Z,7.40
2017-04-20T11:15:09.375Z,7.30
2017-04-20T11:16:08.991Z,7.30
2017-04-20T11:17:09.465Z,7.10
2017-04-20T11:18:09.089Z,7.10
2017-04-20T11:19:08.708Z,7.10
2017-04-20T11:20:08.338Z,7.20
2017-04-20T11:21:07.970Z,7.20
2017-04-20T11:22:07.592Z,7.20
2017-04-20T11:23:07.261Z,7.00
2017-04-20T11:24:06.887Z,7.00
2017-04-20T11:25:06.528Z,7.10
2017-04-20T11:26:06.144Z,7.40
2017-04-20T11:27:05.760Z,7.50
2017-04-20T11:28:05.389Z,7.60
2017-04-20T11:29:05.069Z,7.60
2017-04-20T11:30:04.794Z,7.70
2017-04-20T11:31:05.159Z,7.70
2017-04-20T11:32:04.779Z,7.60
2017-04-20T11:33:04.529Z,7.70
2017-04-20T11:34:04.148Z,7.60
2017-04-20T11:35:03.852Z,7.40
2017-04-20T11:36:03.467Z,7.30
2017-04-20T11:37:03.077Z,7.20
2017-04-20T11:38:02.792Z,7.40
2017-04-20T11:39:03.158Z,7.40
2017-04-20T11:40:02.772Z,7.30
2017-04-20T11:41:02.499Z,7.30
2017-04-20T11:42:02.858Z,7.30
2017-04-20T11:44:11.165Z,7.10
2017-04-20T11:45:10.784Z,7.00
2017-04-20T11:46:10.460Z,7.00
2017-04-20T11:47:10.417Z,7.00
2017-04-20T11:48:10.049Z,7.20
2017-04-20T11:49:09.669Z,7.30
2017-04-20T11:50:09.291Z,7.40
2017-04-20T11:51:08.904Z,7.40
2017-04-20T11:52:08.572Z,7.20
2017-04-20T11:53:08.209Z,7.00
2017-04-20T11:54:07.832Z,6.90
2017-04-20T11:55:07.484Z,6.90
2017-04-20T11:56:07.101Z,6.90
2017-04-20T11:57:06.718Z,6.80
2017-04-20T11:58:06.384Z,6.80
2017-04-20T11:59:06.752Z,6.80
2017-04-20T12:00:06.369Z,7.00
2017-04-20T12:01:06.047Z,7.10
2017-04-20T12:02:05.668Z,6.90
2017-04-20T12:03:05.289Z,6.80
2017-04-20T12:04:04.990Z,6.70
2017-04-20T12:05:04.747Z,6.60
2017-04-20T12:06:04.479Z,6.70
2017-04-20T12:07:04.863Z,6.60
2017-04-20T12:08:04.489Z,6.60
2017-04-20T12:09:05.539Z,6.40
2017-04-20T12:10:05.202Z,6.50
2017-04-20T12:11:04.818Z,6.40
2017-04-20T12:12:05.190Z,6.30
2017-04-20T12:13:04.815Z,6.40
2017-04-20T12:14:04.525Z,6.60
2017-04-20T12:15:04.234Z,6.50
2017-04-20T12:16:03.922Z,6.50
2017-04-20T12:17:03.550Z,6.50
2017-04-20T12:18:03.165Z,6.50
2017-04-20T12:19:02.790Z,6.40
2017-04-20T12:20:02.422Z,6.40
2017-04-20T12:21:02.094Z,6.50
2017-04-20T12:22:01.721Z,6.60
2017-04-20T12:23:01.328Z,6.60
2017-04-20T12:24:00.953Z,6.70
2017-04-20T12:25:00.592Z,6.70
2017-04-20T12:26:00.290Z,6.80
2017-04-20T12:26:59.948Z,6.80
2017-04-20T12:27:59.559Z,6.90
2017-04-20T12:28:59.200Z,7.20
2017-04-20T12:29:58.826Z,7.50
2017-04-20T12:30:59.308Z,7.60
2017-04-20T12:33:07.739Z,7.60
2017-04-20T12:34:07.417Z,7.50
2017-04-20T12:35:07.035Z,7.60
2017-04-20T12:36:06.654Z,7.70
2017-04-20T12:37:07.104Z,7.70
2017-04-20T12:38:06.781Z,7.70
2017-04-20T12:39:06.804Z,7.70
2017-04-20T12:40:06.614Z,7.60
2017-04-20T12:41:06.296Z,7.50
2017-04-20T12:42:05.873Z,7.60
2017-04-20T12:43:05.524Z,7.60
2017-04-20T12:44:05.136Z,7.80
2017-04-20T12:45:04.869Z,7.90
2017-04-20T12:46:04.489Z,7.60
2017-04-20T12:47:04.145Z,7.50
2017-04-20T12:48:03.759Z,7.50
2017-04-20T12:49:03.368Z,7.60
2017-04-20T12:50:03.085Z,7.50
2017-04-20T12:51:02.753Z,7.40
2017-04-20T12:52:02.375Z,7.30
2017-04-20T12:53:02.078Z,7.30
2017-04-20T12:54:01.708Z,7.50
2017-04-20T12:55:01.298Z,7.50
2017-04-20T12:56:00.939Z,7.40
2017-04-20T12:58:00.479Z,7.00
2017-04-20T12:59:00.857Z,7.20
2017-04-20T13:00:00.479Z,7.30
2017-04-20T13:01:00.841Z,7.50
2017-04-20T13:02:00.508Z,7.70
2017-04-20T13:03:00.120Z,7.50
2017-04-20T13:03:59.809Z,7.30
2017-04-20T13:04:59.457Z,7.10
2017-04-20T13:05:59.167Z,7.00
2017-04-20T13:06:58.879Z,7.10
2017-04-20T13:07:58.543Z,7.00
2017-04-20T13:08:58.198Z,6.90
2017-04-20T13:09:57.844Z,6.90
2017-04-20T13:10:57.466Z,7.10
2017-04-20T13:11:57.165Z,7.30
2017-04-20T13:12:56.804Z,7.50
2017-04-20T13:13:56.472Z,7.70
2017-04-20T13:14:57.079Z,8.00
2017-04-20T13:15:56.707Z,8.20
2017-04-20T13:16:56.326Z,8.20
2017-04-20T13:17:55.940Z,8.30
2017-04-20T13:18:55.554Z,8.30